Time;durP1;ratioP1;P1;durP2;ratioP2;P2;SDS_P1;SDS_P2;PMS_P1;PMS_P2;Temp;Humidity;BMP_temperature;BMP_pressure;BME280_temperature;BME280_humidity;BME280_pressure;Samples;Min_cycle;Max_cycle;Signal;HPM_P1;HPM_P2
2022/10/10 00:00:36;;;;;;;1.52;1.20;;;;;;;;;;5018066;28;20112;-23
2022/10/10 00:03:02;;;;;;;0.77;0.77;;;;;;;;;;5017415;28;20056;-22
2022/10/10 00:05:28;;;;;;;0.85;0.85;;;;;;;;;;5017693;28;20050;-26
2022/10/10 00:07:55;;;;;;;0.90;0.90;;;;;;;;;;5017678;28;20414;-23
2022/10/10 00:10:21;;;;;;;0.75;0.75;;;;;;;;;;5017639;28;20026;-22
2022/10/10 00:12:47;;;;;;;1.30;1.20;;;;;;;;;;5017769;28;20053;-22
2022/10/10 00:15:14;;;;;;;0.60;0.60;;;;;;;;;;5017578;28;20443;-22
2022/10/10 00:17:42;;;;;;;0.80;0.80;;;;;;;;;;5017479;28;20475;-26
2022/10/10 00:20:10;;;;;;;0.60;0.60;;;;;;;;;;5017746;28;20100;-25
2022/10/10 00:22:36;;;;;;;1.02;0.90;;;;;;;;;;5017281;28;20371;-21
2022/10/10 00:25:02;;;;;;;1.05;1.02;;;;;;;;;;5017305;28;20030;-23
2022/10/10 00:27:28;;;;;;;1.00;1.00;;;;;;;;;;5017322;28;20030;-21
2022/10/10 00:29:54;;;;;;;1.95;1.77;;;;;;;;;;5017515;28;20053;-25
2022/10/10 00:32:20;;;;;;;0.93;0.88;;;;;;;;;;5017107;28;20042;-24
2022/10/10 00:34:47;;;;;;;1.02;0.93;;;;;;;;;;5017190;28;20037;-22
2022/10/10 00:37:13;;;;;;;0.95;0.90;;;;;;;;;;5017147;28;20582;-23
2022/10/10 00:39:39;;;;;;;0.60;0.60;;;;;;;;;;5017328;28;20026;-23
2022/10/10 00:42:05;;;;;;;0.80;0.80;;;;;;;;;;5016934;28;20033;-21
2022/10/10 00:44:31;;;;;;;1.20;1.10;;;;;;;;;;5017009;28;20097;-22
2022/10/10 00:46:58;;;;;;;0.80;0.70;;;;;;;;;;5017196;28;20463;-21
2022/10/10 00:49:26;;;;;;;2.63;0.80;;;;;;;;;;5017096;28;20407;-22
2022/10/10 00:51:54;;;;;;;0.90;0.90;;;;;;;;;;5016753;28;20076;-22
2022/10/10 00:54:22;;;;;;;1.60;1.50;;;;;;;;;;5016817;28;20032;-21
2022/10/10 00:57:00;;;;;;;0.90;0.90;;;;;;;;;;5016754;28;20104;-22
2022/10/10 00:59:26;;;;;;;0.90;0.90;;;;;;;;;;5016695;28;20018;-22
2022/10/10 01:01:52;;;;;;;1.65;1.13;;;;;;;;;;5016736;28;20375;-22
2022/10/10 01:04:38;;;;;;;1.00;1.00;;;;;;;;;;5016459;28;20050;-22
2022/10/10 01:07:07;;;;;;;0.90;0.90;;;;;;;;;;5016546;28;20101;-21
2022/10/10 01:09:35;;;;;;;0.93;0.93;;;;;;;;;;5017057;28;20033;-22
2022/10/10 01:12:24;;;;;;;1.25;1.08;;;;;;;;;;5016406;28;20030;-22
2022/10/10 01:14:59;;;;;;;0.98;0.90;;;;;;;;;;4989161;28;20056;-32
2022/10/10 01:17:45;;;;;;;1.17;0.90;;;;;;;;;;5016687;28;20048;-25
2022/10/10 01:20:30;;;;;;;1.02;0.93;;;;;;;;;;5016631;28;20100;-24
2022/10/10 01:23:06;;;;;;;2.65;0.88;;;;;;;;;;5016141;28;20033;-26
2022/10/10 01:25:40;;;;;;;0.98;0.98;;;;;;;;;;5016256;28;20034;-24
2022/10/10 01:28:06;;;;;;;1.10;1.10;;;;;;;;;;5016178;28;20033;-23
2022/10/10 01:30:34;;;;;;;0.70;0.70;;;;;;;;;;5016141;28;20034;-22
2022/10/10 01:33:08;;;;;;;0.80;0.80;;;;;;;;;;5016054;28;20104;-22
2022/10/10 01:36:04;;;;;;;0.90;0.90;;;;;;;;;;5015954;28;20034;-22
2022/10/10 01:38:38;;;;;;;0.93;0.90;;;;;;;;;;5003806;28;20049;-28
2022/10/10 01:41:14;;;;;;;1.15;0.90;;;;;;;;;;5015971;28;20417;-23
2022/10/10 01:43:40;;;;;;;1.17;1.05;;;;;;;;;;5016325;28;20022;-22
2022/10/10 01:46:11;;;;;;;1.23;1.05;;;;;;;;;;5016386;28;20030;-22
2022/10/10 01:48:38;;;;;;;0.95;0.82;;;;;;;;;;5016368;28;20060;-22
2022/10/10 01:51:04;;;;;;;0.80;0.80;;;;;;;;;;5015796;28;20113;-22
2022/10/10 01:53:41;;;;;;;0.98;0.90;;;;;;;;;;5015908;28;20034;-22
2022/10/10 01:56:09;;;;;;;1.00;0.80;;;;;;;;;;5015725;28;20032;-22
2022/10/10 01:59:14;;;;;;;2.85;0.70;;;;;;;;;;5015886;28;20026;-23
2022/10/10 02:01:42;;;;;;;0.70;0.70;;;;;;;;;;4955480;28;20153;-22
2022/10/10 02:04:13;;;;;;;0.90;0.90;;;;;;;;;;4955358;29;20051;-22
2022/10/10 02:06:46;;;;;;;1.20;1.10;;;;;;;;;;4987114;28;20092;-24
2022/10/10 02:09:16;;;;;;;1.17;0.98;;;;;;;;;;5016030;28;20079;-22
2022/10/10 02:11:42;;;;;;;1.05;1.00;;;;;;;;;;5015944;28;20022;-22
2022/10/10 02:14:14;;;;;;;1.02;0.80;;;;;;;;;;5015566;28;20038;-21
2022/10/10 02:16:42;;;;;;;0.90;0.90;;;;;;;;;;5015920;28;20080;-31
2022/10/10 02:19:10;;;;;;;1.00;0.90;;;;;;;;;;5015564;28;20336;-21
2022/10/10 02:21:38;;;;;;;0.95;0.90;;;;;;;;;;5015218;28;20030;-22
2022/10/10 02:24:05;;;;;;;0.93;0.80;;;;;;;;;;5015342;28;20111;-26
2022/10/10 02:26:33;;;;;;;1.00;1.00;;;;;;;;;;5015134;28;20022;-22
2022/10/10 02:29:01;;;;;;;0.73;0.73;;;;;;;;;;5015709;28;20080;-23
2022/10/10 02:31:29;;;;;;;0.90;0.90;;;;;;;;;;5015104;28;20106;-22
2022/10/10 02:33:58;;;;;;;1.02;0.93;;;;;;;;;;5015518;28;20040;-22
2022/10/10 02:36:25;;;;;;;0.70;0.70;;;;;;;;;;5014976;28;20034;-22
2022/10/10 02:38:52;;;;;;;1.02;0.98;;;;;;;;;;5015019;28;20356;-22
2022/10/10 02:41:19;;;;;;;0.70;0.70;;;;;;;;;;5014973;28;20064;-21
2022/10/10 02:43:46;;;;;;;0.77;0.77;;;;;;;;;;5015082;28;20121;-23
2022/10/10 02:46:13;;;;;;;1.35;1.15;;;;;;;;;;5014943;28;20025;-22
2022/10/10 02:48:39;;;;;;;0.98;0.93;;;;;;;;;;5015150;28;20347;-23
2022/10/10 02:51:06;;;;;;;0.90;0.80;;;;;;;;;;5015116;28;20026;-23
2022/10/10 02:53:33;;;;;;;0.68;0.68;;;;;;;;;;5014732;28;20022;-22
2022/10/10 02:55:59;;;;;;;0.90;0.88;;;;;;;;;;5014760;28;20041;-22
2022/10/10 02:58:26;;;;;;;1.30;0.90;;;;;;;;;;5014809;28;20065;-21
2022/10/10 03:00:52;;;;;;;0.70;0.70;;;;;;;;;;5014760;28;20037;-22
2022/10/10 03:03:19;;;;;;;1.40;0.80;;;;;;;;;;5029936;28;20133;-21
2022/10/10 03:05:45;;;;;;;0.90;0.90;;;;;;;;;;5015025;28;20050;-21
2022/10/10 03:08:11;;;;;;;0.68;0.68;;;;;;;;;;5014735;28;20030;-24
2022/10/10 03:10:37;;;;;;;1.55;0.77;;;;;;;;;;5014941;28;20467;-23
2022/10/10 03:13:03;;;;;;;0.90;0.90;;;;;;;;;;5015449;28;20068;-21
2022/10/10 03:15:29;;;;;;;0.80;0.80;;;;;;;;;;5018959;28;20378;-21
2022/10/10 03:17:55;;;;;;;0.90;0.90;;;;;;;;;;5018601;28;20022;-22
2022/10/10 03:20:22;;;;;;;0.68;0.68;;;;;;;;;;5018612;28;20061;-22
2022/10/10 03:22:48;;;;;;;0.90;0.90;;;;;;;;;;5018404;28;20026;-23
2022/10/10 03:25:14;;;;;;;0.90;0.70;;;;;;;;;;5018763;28;20034;-21
2022/10/10 03:27:40;;;;;;;0.82;0.82;;;;;;;;;;5018397;28;20041;-21
2022/10/10 03:30:07;;;;;;;0.80;0.80;;;;;;;;;;5018679;28;20037;-23
2022/10/10 03:32:33;;;;;;;0.80;0.80;;;;;;;;;;5018255;28;20096;-23
2022/10/10 03:34:59;;;;;;;0.90;0.90;;;;;;;;;;5018318;28;20032;-21
2022/10/10 03:37:25;;;;;;;0.90;0.85;;;;;;;;;;5018796;28;20034;-23
2022/10/10 03:39:51;;;;;;;1.25;0.90;;;;;;;;;;5018181;28;20041;-22
2022/10/10 03:42:17;;;;;;;0.70;0.70;;;;;;;;;;5017960;28;20022;-22
2022/10/10 03:44:44;;;;;;;1.50;1.23;;;;;;;;;;5018142;28;20099;-22
2022/10/10 03:47:10;;;;;;;0.75;0.75;;;;;;;;;;5018051;28;20475;-22
2022/10/10 03:49:36;;;;;;;0.60;0.60;;;;;;;;;;5018281;28;20045;-22
2022/10/10 03:52:02;;;;;;;1.38;1.10;;;;;;;;;;5018409;28;20018;-23
2022/10/10 03:54:28;;;;;;;0.85;0.85;;;;;;;;;;5018334;28;20022;-22
2022/10/10 03:56:54;;;;;;;0.88;0.88;;;;;;;;;;5017884;28;20021;-23
2022/10/10 03:59:20;;;;;;;0.85;0.80;;;;;;;;;;5018066;28;20108;-24
2022/10/10 04:01:46;;;;;;;0.80;0.80;;;;;;;;;;5017924;28;20034;-22
2022/10/10 04:04:13;;;;;;;0.73;0.73;;;;;;;;;;5017292;28;20534;-22
2022/10/10 04:06:39;;;;;;;1.45;1.10;;;;;;;;;;5017643;28;20053;-22
2022/10/10 04:09:05;;;;;;;0.90;0.90;;;;;;;;;;5017642;28;20084;-23
2022/10/10 04:11:31;;;;;;;0.70;0.70;;;;;;;;;;5017592;28;20333;-21
2022/10/10 04:13:57;;;;;;;0.75;0.75;;;;;;;;;;5017583;28;20056;-25
2022/10/10 04:16:23;;;;;;;1.13;1.13;;;;;;;;;;5017647;28;20033;-22
2022/10/10 04:18:50;;;;;;;0.80;0.80;;;;;;;;;;5017589;28;20026;-24
2022/10/10 04:21:16;;;;;;;0.82;0.82;;;;;;;;;;5017317;28;20072;-23
2022/10/10 04:23:42;;;;;;;1.15;0.82;;;;;;;;;;5016665;28;20108;-22
2022/10/10 04:26:08;;;;;;;1.00;1.00;;;;;;;;;;5017833;28;20026;-21
2022/10/10 04:28:34;;;;;;;0.73;0.73;;;;;;;;;;5017227;28;20091;-24
2022/10/10 04:31:00;;;;;;;0.80;0.80;;;;;;;;;;5017430;28;20022;-24
2022/10/10 04:33:27;;;;;;;0.70;0.70;;;;;;;;;;5017208;28;20518;-22
2022/10/10 04:35:53;;;;;;;1.27;0.82;;;;;;;;;;5017080;28;20037;-22
2022/10/10 04:38:20;;;;;;;0.85;0.85;;;;;;;;;;5017240;28;20379;-23
2022/10/10 04:40:48;;;;;;;1.08;0.98;;;;;;;;;;5032326;28;20113;-22
2022/10/10 04:43:14;;;;;;;0.88;0.88;;;;;;;;;;5016842;28;20056;-22
2022/10/10 04:45:40;;;;;;;0.82;0.60;;;;;;;;;;5032392;28;20026;-22
2022/10/10 04:48:07;;;;;;;0.85;0.73;;;;;;;;;;5016742;28;20479;-22
2022/10/10 04:50:33;;;;;;;2.00;0.90;;;;;;;;;;5016947;28;20113;-22
2022/10/10 04:52:59;;;;;;;0.98;0.98;;;;;;;;;;5016617;28;20030;-23
2022/10/10 04:55:25;;;;;;;2.38;1.10;;;;;;;;;;5016909;28;20092;-25
2022/10/10 04:57:51;;;;;;;1.20;0.93;;;;;;;;;;5016666;28;20034;-27
2022/10/10 05:00:18;;;;;;;1.08;1.08;;;;;;;;;;5017112;28;20037;-22
2022/10/10 05:02:44;;;;;;;2.13;1.10;;;;;;;;;;5016434;28;20022;-23
2022/10/10 05:05:10;;;;;;;1.73;0.70;;;;;;;;;;5016446;28;20034;-22
2022/10/10 05:07:36;;;;;;;1.58;0.73;;;;;;;;;;5016488;28;20026;-24
2022/10/10 05:10:04;;;;;;;2.22;0.90;;;;;;;;;;5016416;28;20038;-22
2022/10/10 05:12:31;;;;;;;0.75;0.73;;;;;;;;;;5016264;28;20042;-22
2022/10/10 05:14:57;;;;;;;0.88;0.88;;;;;;;;;;5016320;28;20048;-22
2022/10/10 05:17:23;;;;;;;1.75;1.00;;;;;;;;;;5016288;28;20108;-21
2022/10/10 05:19:50;;;;;;;1.65;1.20;;;;;;;;;;5016235;28;20366;-22
2022/10/10 05:22:16;;;;;;;1.75;0.73;;;;;;;;;;5016197;28;20025;-24
2022/10/10 05:24:42;;;;;;;4.43;1.00;;;;;;;;;;5016043;28;20018;-22
2022/10/10 05:27:09;;;;;;;2.35;1.20;;;;;;;;;;5016279;28;20347;-23
2022/10/10 05:29:35;;;;;;;2.08;1.13;;;;;;;;;;5016311;28;20033;-22
2022/10/10 05:32:01;;;;;;;1.52;1.15;;;;;;;;;;5015957;28;20091;-22
2022/10/10 05:34:27;;;;;;;3.53;0.85;;;;;;;;;;5016056;28;20026;-22
2022/10/10 05:36:55;;;;;;;1.35;0.90;;;;;;;;;;5015414;28;20054;-23
2022/10/10 05:39:22;;;;;;;3.80;1.42;;;;;;;;;;5016154;28;20025;-21
2022/10/10 05:41:48;;;;;;;1.67;1.00;;;;;;;;;;5015610;28;20036;-24
2022/10/10 05:44:14;;;;;;;1.58;0.98;;;;;;;;;;5016288;28;20030;-21
2022/10/10 05:46:40;;;;;;;1.25;0.90;;;;;;;;;;5016253;28;20026;-22
2022/10/10 05:49:06;;;;;;;2.50;0.98;;;;;;;;;;5031202;28;20113;-21
2022/10/10 05:51:33;;;;;;;1.83;1.10;;;;;;;;;;5015931;28;20148;-23
2022/10/10 05:53:59;;;;;;;3.67;1.20;;;;;;;;;;5015527;28;20033;-23
2022/10/10 05:56:25;;;;;;;2.78;1.00;;;;;;;;;;5015827;28;20030;-23
2022/10/10 05:58:52;;;;;;;1.45;1.30;;;;;;;;;;5015794;28;20414;-24
2022/10/10 06:03:54;;;;;;;2.45;1.08;;;;;;;;;;5113832;22;20145;-27
2022/10/10 06:06:24;;;;;;;3.60;1.40;;;;;;;;;;5015759;28;20052;-28
2022/10/10 06:08:51;;;;;;;12.68;2.65;;;;;;;;;;5015735;28;20021;-27
2022/10/10 06:11:19;;;;;;;9.80;1.88;;;;;;;;;;5015247;28;20473;-27
2022/10/10 06:13:48;;;;;;;1.90;1.60;;;;;;;;;;5015474;28;20060;-27
2022/10/10 06:16:14;;;;;;;1.05;0.93;;;;;;;;;;5015434;28;20030;-27
2022/10/10 06:18:40;;;;;;;1.15;0.98;;;;;;;;;;5015163;28;20022;-27
2022/10/10 06:21:07;;;;;;;2.45;1.00;;;;;;;;;;5015499;28;20057;-27
2022/10/10 06:23:33;;;;;;;3.22;1.42;;;;;;;;;;5015095;28;20382;-27
2022/10/10 06:25:59;;;;;;;3.65;1.25;;;;;;;;;;5015150;28;20022;-27
2022/10/10 06:28:26;;;;;;;1.70;0.98;;;;;;;;;;5015163;28;20025;-27
2022/10/10 06:30:52;;;;;;;2.15;1.17;;;;;;;;;;5015268;28;20082;-28
2022/10/10 06:33:19;;;;;;;2.08;1.20;;;;;;;;;;5015274;28;20025;-27
2022/10/10 06:35:46;;;;;;;6.07;1.17;;;;;;;;;;5015132;28;20034;-27
2022/10/10 06:38:13;;;;;;;11.80;1.38;;;;;;;;;;5014748;28;20026;-27
2022/10/10 06:40:40;;;;;;;11.63;2.55;;;;;;;;;;5014791;28;20485;-27
2022/10/10 06:43:10;;;;;;;6.95;1.95;;;;;;;;;;5014628;28;20045;-27
2022/10/10 06:45:37;;;;;;;8.30;1.30;;;;;;;;;;5015155;28;20025;-27
2022/10/10 06:48:04;;;;;;;4.05;1.35;;;;;;;;;;5014485;28;20034;-27
2022/10/10 06:50:30;;;;;;;6.13;1.50;;;;;;;;;;5014621;28;20041;-27
2022/10/10 06:52:56;;;;;;;2.30;1.10;;;;;;;;;;5014884;28;20362;-28
2022/10/10 06:55:22;;;;;;;3.70;1.33;;;;;;;;;;5014698;28;20030;-28
2022/10/10 06:57:48;;;;;;;2.42;1.70;;;;;;;;;;5014688;28;20120;-28
2022/10/10 07:00:16;;;;;;;5.38;1.20;;;;;;;;;;5014973;28;20119;-28
2022/10/10 07:02:42;;;;;;;2.40;1.20;;;;;;;;;;5014436;28;20046;-28
2022/10/10 07:05:12;;;;;;;7.57;1.20;;;;;;;;;;5014685;28;20026;-28
2022/10/10 07:07:39;;;;;;;4.88;1.67;;;;;;;;;;5014508;28;20040;-28
2022/10/10 07:10:06;;;;;;;6.20;1.20;;;;;;;;;;5014003;28;20399;-27
2022/10/10 07:12:32;;;;;;;2.38;1.52;;;;;;;;;;5014484;28;20033;-29
2022/10/10 07:14:58;;;;;;;4.45;1.52;;;;;;;;;;5014829;28;20026;-28
2022/10/10 07:17:25;;;;;;;4.70;0.90;;;;;;;;;;5014501;28;20030;-29
2022/10/10 07:19:51;;;;;;;6.75;1.75;;;;;;;;;;5014369;28;20057;-28
2022/10/10 07:22:17;;;;;;;1.80;1.35;;;;;;;;;;5014277;28;20037;-28
2022/10/10 07:24:43;;;;;;;8.45;1.80;;;;;;;;;;5014491;28;20027;-28
2022/10/10 07:27:09;;;;;;;18.83;1.80;;;;;;;;;;5014317;28;20041;-28
2022/10/10 07:29:36;;;;;;;11.30;2.65;;;;;;;;;;5029843;28;20037;-28
2022/10/10 07:32:02;;;;;;;12.27;3.35;;;;;;;;;;5014329;28;20030;-29
2022/10/10 07:34:28;;;;;;;5.75;2.22;;;;;;;;;;5014685;28;20105;-28
2022/10/10 07:36:54;;;;;;;24.15;3.10;;;;;;;;;;5014528;28;20312;-28
2022/10/10 07:39:21;;;;;;;13.05;1.95;;;;;;;;;;5014348;28;20114;-29
2022/10/10 07:41:47;;;;;;;13.65;2.30;;;;;;;;;;5014198;28;20036;-28
2022/10/10 07:44:13;;;;;;;8.85;1.90;;;;;;;;;;5014098;28;20029;-29
2022/10/10 07:46:39;;;;;;;5.35;1.58;;;;;;;;;;5014428;28;20451;-26
2022/10/10 07:49:05;;;;;;;6.88;2.90;;;;;;;;;;5014220;28;20076;-27
2022/10/10 07:51:32;;;;;;;12.32;1.73;;;;;;;;;;5014449;28;20036;-27
2022/10/10 07:53:58;;;;;;;6.85;1.77;;;;;;;;;;5015225;28;20334;-27
2022/10/10 07:56:24;;;;;;;4.28;1.80;;;;;;;;;;5014071;28;20038;-28
2022/10/10 07:58:51;;;;;;;4.00;1.30;;;;;;;;;;5014592;28;20022;-28
2022/10/10 08:01:17;;;;;;;11.95;2.03;;;;;;;;;;5018052;28;20033;-27
2022/10/10 08:03:43;;;;;;;6.75;1.85;;;;;;;;;;5017359;28;20469;-27
2022/10/10 08:06:11;;;;;;;8.50;1.60;;;;;;;;;;5017757;28;20096;-27
2022/10/10 08:08:38;;;;;;;13.85;2.22;;;;;;;;;;5017728;28;20402;-27
2022/10/10 08:11:05;;;;;;;18.20;2.15;;;;;;;;;;5017599;28;20406;-27
2022/10/10 08:13:31;;;;;;;4.90;1.63;;;;;;;;;;5017581;28;20030;-28
2022/10/10 08:15:57;;;;;;;8.98;1.90;;;;;;;;;;5017407;28;20053;-28
2022/10/10 08:18:24;;;;;;;8.70;1.95;;;;;;;;;;5017332;28;20037;-28
2022/10/10 08:21:03;;;;;;;3.97;1.70;;;;;;;;;;5017697;28;20029;-28
2022/10/10 08:23:29;;;;;;;10.77;1.90;;;;;;;;;;5017389;28;20034;-28
2022/10/10 08:26:00;;;;;;;3.50;1.08;;;;;;;;;;5017816;28;20158;-28
2022/10/10 08:28:26;;;;;;;7.67;2.30;;;;;;;;;;5017415;28;20093;-28
2022/10/10 08:30:52;;;;;;;10.60;2.17;;;;;;;;;;5016920;28;20026;-28
2022/10/10 08:33:19;;;;;;;6.80;1.90;;;;;;;;;;5017283;28;20363;-28
2022/10/10 08:35:45;;;;;;;12.93;1.70;;;;;;;;;;5017073;28;20026;-28
2022/10/10 08:38:13;;;;;;;11.85;1.95;;;;;;;;;;5017263;28;20025;-28
2022/10/10 08:40:45;;;;;;;10.05;2.05;;;;;;;;;;5017260;28;20056;-28
2022/10/10 08:43:16;;;;;;;18.02;2.30;;;;;;;;;;5016924;28;20105;-28
2022/10/10 08:45:42;;;;;;;22.33;2.47;;;;;;;;;;5017228;28;20030;-28
2022/10/10 08:48:14;;;;;;;10.73;2.20;;;;;;;;;;5016886;28;20022;-28
2022/10/10 08:50:42;;;;;;;16.45;2.08;;;;;;;;;;5016839;28;20407;-28
2022/10/10 08:53:13;;;;;;;22.45;3.67;;;;;;;;;;5016642;28;20439;-28
2022/10/10 08:55:42;;;;;;;16.15;3.20;;;;;;;;;;5032237;28;20060;-28
2022/10/10 08:58:11;;;;;;;12.07;2.20;;;;;;;;;;5016690;28;20288;-28
2022/10/10 09:00:39;;;;;;;23.40;2.85;;;;;;;;;;5032134;28;20125;-28
2022/10/10 09:03:14;;;;;;;10.88;1.90;;;;;;;;;;5016083;28;20131;-28
2022/10/10 09:05:40;;;;;;;8.63;2.08;;;;;;;;;;5016856;28;20033;-28
2022/10/10 09:08:16;;;;;;;8.77;2.15;;;;;;;;;;5016510;28;20370;-28
2022/10/10 09:10:48;;;;;;;11.98;2.42;;;;;;;;;;5015486;28;20022;-28
2022/10/10 09:13:23;;;;;;;13.20;2.90;;;;;;;;;;5016282;28;20025;-28
2022/10/10 09:15:57;;;;;;;11.13;2.33;;;;;;;;;;5016725;28;20041;-28
2022/10/10 09:18:36;;;;;;;17.98;2.38;;;;;;;;;;5016498;28;20450;-28
2022/10/10 09:21:06;;;;;;;15.70;2.22;;;;;;;;;;5016115;28;20033;-28
2022/10/10 09:23:38;;;;;;;22.60;2.35;;;;;;;;;;5016148;28;20454;-28
2022/10/10 09:26:05;;;;;;;18.77;2.38;;;;;;;;;;5016397;28;20394;-28
2022/10/10 09:28:44;;;;;;;9.65;2.35;;;;;;;;;;5016102;28;20486;-28
2022/10/10 09:31:16;;;;;;;24.55;3.47;;;;;;;;;;5016016;28;20025;-28
2022/10/10 09:34:05;;;;;;;16.25;2.22;;;;;;;;;;5016437;28;20033;-28
2022/10/10 09:36:34;;;;;;;23.88;2.30;;;;;;;;;;5008981;28;20120;-28
2022/10/10 09:39:06;;;;;;;31.20;3.35;;;;;;;;;;5015890;28;20081;-28
2022/10/10 09:41:51;;;;;;;22.48;2.83;;;;;;;;;;5015842;28;20108;-28
2022/10/10 09:44:19;;;;;;;8.70;1.90;;;;;;;;;;5015659;28;20122;-28
2022/10/10 09:46:45;;;;;;;10.15;2.35;;;;;;;;;;5016044;28;20490;-28
2022/10/10 09:49:14;;;;;;;11.27;2.05;;;;;;;;;;5015778;28;20551;-28
2022/10/10 09:51:40;;;;;;;25.50;2.83;;;;;;;;;;5015811;28;20088;-28
2022/10/10 09:54:06;;;;;;;32.03;2.78;;;;;;;;;;5015575;28;20029;-28
2022/10/10 09:56:38;;;;;;;19.98;3.65;;;;;;;;;;5015925;28;20030;-28
2022/10/10 09:59:04;;;;;;;14.25;3.78;;;;;;;;;;5015474;28;20030;-28
2022/10/10 10:01:31;;;;;;;25.95;2.90;;;;;;;;;;5015384;28;20061;-28
2022/10/10 10:04:06;;;;;;;21.33;2.47;;;;;;;;;;5015185;28;20053;-28
2022/10/10 10:06:32;;;;;;;13.50;3.22;;;;;;;;;;5015238;28;20030;-28
2022/10/10 10:09:03;;;;;;;16.10;3.58;;;;;;;;;;5015314;28;20373;-28
2022/10/10 10:11:33;;;;;;;17.85;2.53;;;;;;;;;;5015324;28;20558;-28
2022/10/10 10:14:02;;;;;;;23.83;3.23;;;;;;;;;;5015411;28;20022;-28
2022/10/10 10:16:31;;;;;;;16.60;3.72;;;;;;;;;;5015191;28;20129;-28
2022/10/10 10:18:57;;;;;;;24.60;3.53;;;;;;;;;;5015192;28;20363;-29
2022/10/10 10:21:24;;;;;;;21.88;3.60;;;;;;;;;;5015073;28;20361;-28
2022/10/10 10:24:18;;;;;;;17.38;2.88;;;;;;;;;;5014833;28;20113;-28
2022/10/10 10:26:45;;;;;;;25.80;2.70;;;;;;;;;;5015077;28;20021;-28
2022/10/10 10:29:23;;;;;;;24.90;3.45;;;;;;;;;;5014961;28;20030;-28
2022/10/10 10:32:05;;;;;;;18.75;3.13;;;;;;;;;;5014909;28;20034;-28
2022/10/10 10:34:42;;;;;;;23.08;2.92;;;;;;;;;;5015019;28;20054;-28
2022/10/10 10:37:23;;;;;;;16.35;3.28;;;;;;;;;;5015298;28;20026;-28
2022/10/10 10:40:08;;;;;;;21.65;3.85;;;;;;;;;;5014933;28;20025;-28
2022/10/10 10:42:37;;;;;;;20.08;2.72;;;;;;;;;;5014978;28;20053;-28
2022/10/10 10:45:09;;;;;;;22.17;2.40;;;;;;;;;;5014921;28;20022;-28
2022/10/10 10:47:35;;;;;;;17.50;2.65;;;;;;;;;;5013975;28;20040;-28
2022/10/10 10:50:10;;;;;;;27.90;3.38;;;;;;;;;;5014977;28;20417;-28
2022/10/10 10:52:48;;;;;;;21.98;3.45;;;;;;;;;;5014915;28;20105;-28
2022/10/10 10:55:25;;;;;;;37.38;4.75;;;;;;;;;;5014730;28;20053;-28
2022/10/10 10:57:59;;;;;;;13.68;3.65;;;;;;;;;;5014796;28;20034;-28
2022/10/10 11:00:25;;;;;;;5.70;2.00;;;;;;;;;;5014916;28;20038;-28
2022/10/10 11:03:05;;;;;;;17.70;3.03;;;;;;;;;;5014458;28;20260;-28
2022/10/10 11:06:09;;;;;;;18.77;3.15;;;;;;;;;;5014783;28;20506;-28
2022/10/10 11:08:47;;;;;;;9.27;2.25;;;;;;;;;;4955066;29;20106;-28
2022/10/10 11:11:28;;;;;;;24.35;3.55;;;;;;;;;;4954812;29;20031;-28
2022/10/10 11:14:13;;;;;;;7.32;1.88;;;;;;;;;;4994590;28;20371;-28
2022/10/10 11:16:50;;;;;;;18.20;2.70;;;;;;;;;;5014540;28;20022;-28
2022/10/10 11:19:28;;;;;;;18.02;2.65;;;;;;;;;;5014888;28;20022;-28
2022/10/10 11:21:57;;;;;;;12.43;3.30;;;;;;;;;;5014762;28;20360;-28
2022/10/10 11:24:43;;;;;;;12.07;2.10;;;;;;;;;;5014367;28;20046;-28
2022/10/10 11:27:18;;;;;;;17.95;3.92;;;;;;;;;;5014367;28;20033;-28
2022/10/10 11:30:07;;;;;;;14.27;2.55;;;;;;;;;;5014708;28;20100;-28
2022/10/10 11:32:37;;;;;;;13.88;3.03;;;;;;;;;;5006623;28;20038;-28
2022/10/10 11:35:03;;;;;;;14.88;3.55;;;;;;;;;;5017366;28;20025;-28
2022/10/10 11:37:31;;;;;;;20.67;3.53;;;;;;;;;;5018237;28;20116;-28
2022/10/10 11:40:00;;;;;;;11.55;2.25;;;;;;;;;;5018140;28;20033;-28
2022/10/10 11:42:29;;;;;;;20.27;2.92;;;;;;;;;;5018074;28;20351;-28
2022/10/10 11:44:58;;;;;;;16.48;2.60;;;;;;;;;;5018073;28;20022;-28
2022/10/10 11:47:42;;;;;;;13.50;2.42;;;;;;;;;;5017998;28;20022;-28
2022/10/10 11:50:15;;;;;;;18.23;3.95;;;;;;;;;;5018013;28;20048;-28
2022/10/10 11:52:41;;;;;;;17.30;2.83;;;;;;;;;;5018258;28;20113;-28
2022/10/10 11:55:21;;;;;;;13.88;2.53;;;;;;;;;;5017867;28;20030;-28
2022/10/10 11:57:55;;;;;;;24.30;3.63;;;;;;;;;;5018645;28;20037;-28
2022/10/10 12:00:21;;;;;;;29.15;3.08;;;;;;;;;;5017818;28;20057;-28
2022/10/10 12:02:48;;;;;;;21.88;4.05;;;;;;;;;;5017566;28;20053;-28
2022/10/10 12:05:17;;;;;;;15.40;2.90;;;;;;;;;;5017765;28;20053;-28
2022/10/10 12:07:48;;;;;;;8.73;2.40;;;;;;;;;;5017958;28;20072;-28
2022/10/10 12:10:14;;;;;;;;;;;;;;;;;;5018133;28;20423;-28
2022/10/10 12:12:43;;;;;;;20.50;3.85;;;;;;;;;;5017831;28;19951;-29
2022/10/10 12:15:10;;;;;;;7.10;2.58;;;;;;;;;;5017850;28;20022;-28
2022/10/10 12:17:39;;;;;;;13.27;3.58;;;;;;;;;;5017451;28;20025;-28
2022/10/10 12:20:10;;;;;;;16.65;3.63;;;;;;;;;;5017378;28;20041;-28
2022/10/10 12:22:36;;;;;;;12.10;3.20;;;;;;;;;;5017305;28;20025;-28
2022/10/10 12:25:12;;;;;;;15.77;3.42;;;;;;;;;;5017273;28;20030;-28
2022/10/10 12:27:43;;;;;;;28.30;3.00;;;;;;;;;;5017233;28;20034;-28
2022/10/10 12:30:14;;;;;;;19.40;2.92;;;;;;;;;;5017261;28;20026;-28
2022/10/10 12:32:45;;;;;;;18.38;2.78;;;;;;;;;;5017209;28;20029;-28
2022/10/10 12:35:30;;;;;;;19.83;4.00;;;;;;;;;;5017456;28;20105;-28
2022/10/10 12:38:06;;;;;;;18.08;2.45;;;;;;;;;;5017120;28;20079;-28
2022/10/10 12:40:33;;;;;;;15.20;2.83;;;;;;;;;;5017128;28;20030;-28
2022/10/10 12:43:04;;;;;;;18.58;2.88;;;;;;;;;;5016844;28;20129;-28
2022/10/10 12:45:30;;;;;;;;;;;;;;;;;;5017358;28;20402;-28
2022/10/10 12:48:06;;;;;;;11.43;3.10;;;;;;;;;;5017084;28;19916;-28
2022/10/10 12:50:40;;;;;;;63.33;4.72;;;;;;;;;;5016681;28;20040;-28
2022/10/10 12:53:15;;;;;;;21.17;3.13;;;;;;;;;;5016838;28;20065;-28
2022/10/10 12:55:46;;;;;;;49.47;5.10;;;;;;;;;;5016933;28;20037;-28
2022/10/10 12:58:18;;;;;;;67.25;6.20;;;;;;;;;;5016506;28;20429;-28
2022/10/10 13:00:45;;;;;;;18.95;3.42;;;;;;;;;;5016427;28;20030;-28
2022/10/10 13:03:19;;;;;;;24.92;6.63;;;;;;;;;;5016110;28;20133;-28
2022/10/10 13:05:47;;;;;;;18.40;2.95;;;;;;;;;;5016765;28;20030;-28
2022/10/10 13:08:23;;;;;;;12.48;3.10;;;;;;;;;;5016658;28;20026;-29
2022/10/10 13:11:10;;;;;;;14.82;3.42;;;;;;;;;;5031933;28;20470;-29
2022/10/10 13:13:37;;;;;;;28.48;3.70;;;;;;;;;;5016625;28;20140;-28
2022/10/10 13:16:13;;;;;;;29.38;4.97;;;;;;;;;;5016335;28;20030;-28
2022/10/10 13:18:41;;;;;;;14.43;3.83;;;;;;;;;;5016396;28;20088;-28
2022/10/10 13:21:09;;;;;;;14.50;3.40;;;;;;;;;;5016209;28;20119;-28
2022/10/10 13:23:45;;;;;;;12.07;3.20;;;;;;;;;;5016153;28;20034;-28
2022/10/10 13:26:28;;;;;;;13.73;2.92;;;;;;;;;;5016397;28;20037;-28
2022/10/10 13:29:00;;;;;;;18.17;5.10;;;;;;;;;;5016049;28;20068;-28
2022/10/10 13:31:26;;;;;;;15.18;3.63;;;;;;;;;;5016152;28;20052;-28
2022/10/10 13:34:01;;;;;;;20.48;3.08;;;;;;;;;;5015972;28;20466;-28
2022/10/10 13:36:28;;;;;;;13.38;2.72;;;;;;;;;;5016021;28;20053;-28
2022/10/10 13:38:54;;;;;;;19.90;4.03;;;;;;;;;;5016244;28;20036;-28
2022/10/10 13:41:21;;;;;;;18.05;2.75;;;;;;;;;;5016176;28;20447;-28
2022/10/10 13:43:48;;;;;;;21.63;3.83;;;;;;;;;;5015987;28;20034;-29
2022/10/10 13:46:43;;;;;;;16.13;2.70;;;;;;;;;;5016154;28;20362;-28
2022/10/10 13:49:28;;;;;;;14.32;3.92;;;;;;;;;;5003199;28;20406;-28
2022/10/10 13:52:06;;;;;;;20.35;3.45;;;;;;;;;;5015652;28;20026;-28
2022/10/10 13:54:41;;;;;;;17.77;5.45;;;;;;;;;;5015698;28;20033;-28
2022/10/10 13:57:13;;;;;;;12.93;4.13;;;;;;;;;;5015024;28;20030;-29
2022/10/10 13:59:39;;;;;;;23.52;4.68;;;;;;;;;;5015565;28;20041;-29
2022/10/10 14:02:11;;;;;;;12.80;3.30;;;;;;;;;;5015280;28;20026;-28
2022/10/10 14:04:45;;;;;;;18.13;3.50;;;;;;;;;;5015524;28;20037;-29
2022/10/10 14:07:25;;;;;;;17.33;3.47;;;;;;;;;;5015804;28;20087;-28
2022/10/10 14:09:57;;;;;;;18.73;4.22;;;;;;;;;;5015734;28;20026;-28
2022/10/10 14:12:27;;;;;;;20.80;4.13;;;;;;;;;;5015367;28;20435;-28
2022/10/10 14:14:54;;;;;;;21.60;4.43;;;;;;;;;;5015682;28;20098;-28
2022/10/10 14:17:20;;;;;;;26.42;4.53;;;;;;;;;;5015389;28;20459;-28
2022/10/10 14:19:47;;;;;;;18.80;3.88;;;;;;;;;;5015163;28;20164;-28
2022/10/10 14:22:13;;;;;;;16.08;5.22;;;;;;;;;;5015273;28;20025;-28
2022/10/10 14:24:39;;;;;;;17.75;4.18;;;;;;;;;;5015155;28;20026;-28
2022/10/10 14:27:26;;;;;;;23.10;4.43;;;;;;;;;;5015167;28;20044;-28
2022/10/10 14:29:53;;;;;;;15.68;3.17;;;;;;;;;;5015358;28;20049;-29
2022/10/10 14:32:20;;;;;;;23.80;3.65;;;;;;;;;;5015006;28;20430;-28
2022/10/10 14:34:46;;;;;;;22.67;3.38;;;;;;;;;;5015077;28;20037;-28
2022/10/10 14:37:16;;;;;;;24.73;4.05;;;;;;;;;;5015051;28;20018;-28
2022/10/10 14:39:42;;;;;;;18.20;4.80;;;;;;;;;;5015261;28;20029;-29
2022/10/10 14:42:10;;;;;;;26.10;3.25;;;;;;;;;;5015098;28;20496;-28
2022/10/10 14:44:37;;;;;;;17.23;3.50;;;;;;;;;;5015150;28;20041;-28
2022/10/10 14:47:03;;;;;;;17.92;3.15;;;;;;;;;;5015258;28;20034;-29
2022/10/10 14:49:29;;;;;;;11.93;3.47;;;;;;;;;;5030378;28;20118;-28
2022/10/10 14:51:55;;;;;;;10.23;3.20;;;;;;;;;;5014795;28;20018;-28
2022/10/10 14:54:22;;;;;;;15.70;3.65;;;;;;;;;;5014762;28;20045;-28